createdAt,value
2023-03-01T00:01:11.861Z,101868.84
2023-03-01T00:03:39.466Z,101865.28
2023-03-01T00:06:07.881Z,101863.63
2023-03-01T00:08:35.513Z,101869.03
2023-03-01T00:11:07.072Z,101874.34
2023-03-01T00:13:35.309Z,101862.56
2023-03-01T00:16:04.186Z,101867.16
2023-03-01T00:18:31.746Z,101863.63
2023-03-01T00:20:59.396Z,101860.03
2023-03-01T00:23:27.261Z,101859.47
2023-03-01T00:25:54.925Z,101872.28
2023-03-01T00:28:23.869Z,101871.47
2023-03-01T00:30:51.447Z,101862.84
2023-03-01T00:33:19.312Z,101862.44
2023-03-01T00:35:46.855Z,101857.97
2023-03-01T00:38:14.335Z,101858.81
2023-03-01T00:40:41.854Z,101843.28
2023-03-01T00:43:11.086Z,101843.53
2023-03-01T00:45:39.942Z,101854.41
2023-03-01T00:48:07.527Z,101835.34
2023-03-01T00:50:35.041Z,101838.13
2023-03-01T00:53:02.516Z,101835.69
2023-03-01T00:55:30.097Z,101833.16
2023-03-01T00:57:57.953Z,101823.88
2023-03-01T01:00:28.694Z,101831.44
2023-03-01T01:02:57.546Z,101823.69
2023-03-01T01:05:24.996Z,101830.63
2023-03-01T01:07:52.501Z,101833.41
2023-03-01T01:10:20.146Z,101829.94
2023-03-01T01:12:47.831Z,101828.91
2023-03-01T01:15:17.604Z,101826.28
2023-03-01T01:17:45.454Z,101813.59
2023-03-01T01:20:14.664Z,101809.16
2023-03-01T01:22:42.152Z,101810.19
2023-03-01T01:25:10.544Z,101799.72
2023-03-01T01:27:38.576Z,101798.59
2023-03-01T01:30:07.329Z,101785.41
2023-03-01T01:32:34.907Z,101782.72
2023-03-01T01:35:02.550Z,101774.84
2023-03-01T01:37:32.931Z,101770.66
2023-03-01T01:40:01.031Z,101771.28
2023-03-01T01:42:29.052Z,101769.53
2023-03-01T01:45:28.212Z,101768.66
2023-03-01T01:47:57.941Z,101764.00
2023-03-01T01:50:25.847Z,101773.56
2023-03-01T01:52:55.734Z,101781.03
2023-03-01T01:55:26.573Z,101780.28
2023-03-01T01:57:55.795Z,101784.50
2023-03-01T02:00:25.601Z,101776.84
2023-03-01T02:02:57.584Z,101776.91
2023-03-01T02:05:30.924Z,101780.06
2023-03-01T02:08:00.506Z,101775.63
2023-03-01T02:10:29.856Z,101781.13
2023-03-01T02:12:57.986Z,101780.38
2023-03-01T02:15:27.489Z,101782.97
2023-03-01T02:17:55.312Z,101780.38
2023-03-01T02:20:26.569Z,101784.09
2023-03-01T02:22:54.102Z,101777.84
2023-03-01T02:25:29.873Z,101784.00
2023-03-01T02:28:00.816Z,101781.13
2023-03-01T02:30:30.907Z,101773.38
2023-03-01T02:33:03.409Z,101762.13
2023-03-01T02:35:32.978Z,101760.25
2023-03-01T02:38:01.590Z,101758.50
2023-03-01T02:40:30.403Z,101755.38
2023-03-01T02:43:00.269Z,101746.50
2023-03-01T02:45:29.362Z,101737.81
2023-03-01T02:47:57.181Z,101746.50
2023-03-01T02:50:47.565Z,101737.06
2023-03-01T02:53:19.082Z,101734.16
2023-03-01T02:55:49.119Z,101731.63
2023-03-01T02:58:17.016Z,101732.59
2023-03-01T03:00:46.379Z,101725.63
2023-03-01T03:03:15.318Z,101719.31
2023-03-01T03:05:42.832Z,101715.94
2023-03-01T03:08:10.636Z,101717.97
2023-03-01T03:10:40.410Z,101717.06
2023-03-01T03:13:10.208Z,101712.63
2023-03-01T03:15:39.280Z,101705.44
2023-03-01T03:18:10.417Z,101700.41
2023-03-01T03:20:38.750Z,101700.88
2023-03-01T03:23:06.247Z,101695.16
2023-03-01T03:25:36.208Z,101695.81
2023-03-01T03:28:10.272Z,101694.97
2023-03-01T03:30:40.064Z,101698.91
2023-03-01T03:33:12.661Z,101692.81
2023-03-01T03:35:43.399Z,101692.81
2023-03-01T03:38:16.640Z,101689.16
2023-03-01T03:40:46.061Z,101689.91
2023-03-01T03:43:14.958Z,101679.91
2023-03-01T03:45:43.036Z,101686.72
2023-03-01T03:48:12.491Z,101670.75
2023-03-01T03:50:40.761Z,101671.59
2023-03-01T03:53:10.616Z,101672.63
2023-03-01T03:55:40.059Z,101671.97
2023-03-01T03:58:10.453Z,101671.19
2023-03-01T04:00:39.800Z,101675.13
2023-03-01T04:03:07.708Z,101669.88
2023-03-01T04:05:37.417Z,101668.22
2023-03-01T04:08:07.822Z,101669.06
2023-03-01T04:10:37.471Z,101665.59
2023-03-01T04:13:05.550Z,101668.94
2023-03-01T04:15:33.950Z,101670.84
2023-03-01T04:18:01.837Z,101678.88
2023-03-01T04:20:30.982Z,101688.41
2023-03-01T04:23:09.460Z,101681.56
2023-03-01T04:25:37.037Z,101677.47
2023-03-01T04:28:04.648Z,101673.81
2023-03-01T04:30:36.574Z,101676.69
2023-03-01T04:33:06.019Z,101673.81
2023-03-01T04:35:34.188Z,101678.97
2023-03-01T04:38:03.334Z,101685.97
2023-03-01T04:40:30.939Z,101680.44
2023-03-01T04:42:58.448Z,101676.22
2023-03-01T04:45:26.153Z,101671.47
2023-03-01T04:47:54.012Z,101679.41
2023-03-01T04:50:22.601Z,101671.38
2023-03-01T04:52:50.122Z,101674.16
2023-03-01T04:55:19.226Z,101668.94
2023-03-01T04:57:46.714Z,101672.31
2023-03-01T05:00:21.949Z,101669.03
2023-03-01T05:02:54.145Z,101676.22
2023-03-01T05:05:27.959Z,101666.59
2023-03-01T05:07:56.642Z,101673.31
2023-03-01T05:10:26.412Z,101674.00
2023-03-01T05:12:54.312Z,101669.53
2023-03-01T05:15:26.572Z,101667.25
2023-03-01T05:17:55.096Z,101662.84
2023-03-01T05:20:24.464Z,101669.13
2023-03-01T05:22:52.185Z,101662.22
2023-03-01T05:25:19.843Z,101663.13
2023-03-01T05:27:50.187Z,101664.75
2023-03-01T05:30:18.634Z,101671.47
2023-03-01T05:32:47.447Z,101666.22
2023-03-01T05:35:16.238Z,101662.84
2023-03-01T05:37:44.247Z,101662.84
2023-03-01T05:40:16.569Z,101657.63
2023-03-01T05:42:49.834Z,101656.88
2023-03-01T05:45:18.346Z,101657.78
2023-03-01T05:47:47.324Z,101655.72
2023-03-01T05:50:20.396Z,101661.53
2023-03-01T05:52:49.450Z,101654.34
2023-03-01T05:55:18.326Z,101656.31
2023-03-01T05:57:45.874Z,101657.34
2023-03-01T06:00:16.918Z,101656.56
2023-03-01T06:02:44.579Z,101654.41
2023-03-01T06:05:14.284Z,101646.47
2023-03-01T06:07:42.367Z,101655.84
2023-03-01T06:10:12.256Z,101658.91
2023-03-01T06:12:40.784Z,101663.88
2023-03-01T06:15:10.687Z,101650.47
2023-03-01T06:17:41.506Z,101661.59
2023-03-01T06:20:12.046Z,101662.13
2023-03-01T06:22:39.763Z,101661.09
2023-03-01T06:25:08.488Z,101662.78
2023-03-01T06:27:36.053Z,101669.72
2023-03-01T06:30:04.162Z,101660.06
2023-03-01T06:32:32.692Z,101663.63
2023-03-01T06:35:01.513Z,101661.78
2023-03-01T06:37:29.129Z,101660.66
2023-03-01T06:39:56.627Z,101653.94
2023-03-01T06:42:24.249Z,101657.09
2023-03-01T06:44:51.761Z,101643.13
2023-03-01T06:47:19.228Z,101635.25
2023-03-01T06:49:46.799Z,101645.16
2023-03-01T06:52:15.856Z,101640.00
2023-03-01T06:54:43.390Z,101637.41
2023-03-01T06:57:10.875Z,101631.16
2023-03-01T06:59:38.399Z,101637.88
2023-03-01T07:02:05.884Z,101634.16
2023-03-01T07:04:33.445Z,101643.44
2023-03-01T07:07:01.009Z,101633.97
2023-03-01T07:09:29.943Z,101650.75
2023-03-01T07:11:58.951Z,101648.75
2023-03-01T07:14:26.803Z,101654.66
2023-03-01T07:16:54.482Z,101650.53
2023-03-01T07:19:22.602Z,101655.31
2023-03-01T07:21:50.129Z,101658.00
2023-03-01T07:24:17.638Z,101654.47
2023-03-01T07:26:46.475Z,101650.91
2023-03-01T07:29:13.977Z,101647.34
2023-03-01T07:31:41.464Z,101648.22
2023-03-01T07:34:08.951Z,101644.28
2023-03-01T07:36:36.469Z,101637.47
2023-03-01T07:39:04.157Z,101633.81
2023-03-01T07:41:31.869Z,101638.94
2023-03-01T07:44:00.728Z,101647.66
2023-03-01T07:46:28.208Z,101640.94
2023-03-01T07:48:55.754Z,101633.97
2023-03-01T07:51:23.359Z,101639.63
2023-03-01T07:53:50.951Z,101638.84
2023-03-01T07:56:19.677Z,101642.59
2023-03-01T07:58:49.222Z,101634.34
2023-03-01T08:01:20.612Z,101643.72
2023-03-01T08:03:48.315Z,101644.47
2023-03-01T08:06:17.515Z,101642.50
2023-03-01T08:08:45.498Z,101631.94
2023-03-01T08:11:14.588Z,101635.50
2023-03-01T08:13:42.181Z,101631.56
2023-03-01T08:16:11.851Z,101633.06
2023-03-01T08:18:41.027Z,101626.97
2023-03-01T08:21:11.571Z,101630.34
2023-03-01T08:23:39.497Z,101619.53
2023-03-01T08:26:08.870Z,101612.06
2023-03-01T08:28:36.422Z,101610.63
2023-03-01T08:31:04.430Z,101612.56
2023-03-01T08:33:31.939Z,101609.94
2023-03-01T08:36:08.564Z,101601.84
2023-03-01T08:38:36.208Z,101609.34
2023-03-01T08:41:04.930Z,101595.88
2023-03-01T08:43:32.775Z,101589.03
2023-03-01T08:46:00.420Z,101588.44
2023-03-01T08:48:29.948Z,101590.59
2023-03-01T08:50:57.530Z,101584.13
2023-03-01T08:53:26.425Z,101593.19
2023-03-01T08:55:54.174Z,101592.97
2023-03-01T08:58:21.650Z,101586.34
2023-03-01T09:00:49.129Z,101587.81
2023-03-01T09:03:16.732Z,101577.22
2023-03-01T09:05:46.809Z,101579.22
2023-03-01T09:08:14.409Z,101581.13
2023-03-01T09:10:43.268Z,101576.28
2023-03-01T09:13:11.179Z,101574.06
2023-03-01T09:15:39.177Z,101576.91
2023-03-01T09:18:06.994Z,101574.78
2023-03-01T09:20:34.698Z,101577.63
2023-03-01T09:23:02.604Z,101576.66
2023-03-01T09:25:30.273Z,101562.38
2023-03-01T09:27:59.112Z,101556.03
2023-03-01T09:30:26.600Z,101565.28
2023-03-01T09:32:54.181Z,101555.59
2023-03-01T09:35:23.564Z,101545.69
2023-03-01T09:37:51.464Z,101546.13
2023-03-01T09:40:21.400Z,101552.19
2023-03-01T09:42:54.362Z,101551.53
2023-03-01T09:45:29.180Z,101544.94
2023-03-01T09:47:56.802Z,101549.19
2023-03-01T09:50:25.016Z,101548.44
2023-03-01T09:52:57.205Z,101549.31
2023-03-01T09:55:28.936Z,101542.97
2023-03-01T09:57:58.731Z,101534.13
2023-03-01T10:00:33.649Z,101533.44
2023-03-01T10:03:05.688Z,101541.09
2023-03-01T10:05:41.128Z,101538.63
2023-03-01T10:08:32.243Z,101533.72
2023-03-01T10:11:00.604Z,101538.00
2023-03-01T10:13:33.889Z,101535.66
2023-03-01T10:16:06.230Z,101534.97
2023-03-01T10:18:37.640Z,101538.06
2023-03-01T10:21:14.332Z,101531.63
2023-03-01T10:23:41.872Z,101532.72
2023-03-01T10:26:17.195Z,101534.53
2023-03-01T10:28:55.014Z,101514.44
2023-03-01T10:31:29.386Z,101521.03
2023-03-01T10:33:59.633Z,101519.13
2023-03-01T10:36:27.181Z,101515.16
2023-03-01T10:38:56.054Z,101517.31
2023-03-01T10:41:25.253Z,101518.25
2023-03-01T10:43:54.906Z,101510.72
2023-03-01T10:46:30.338Z,101504.00
2023-03-01T10:49:09.852Z,101503.91
2023-03-01T10:51:37.517Z,101500.53
2023-03-01T10:54:06.757Z,101496.44
2023-03-01T10:56:48.932Z,101484.91
2023-03-01T10:59:25.121Z,101486.13
2023-03-01T11:02:23.605Z,101475.66
2023-03-01T11:05:00.619Z,101466.09
2023-03-01T11:07:28.554Z,101466.19
2023-03-01T11:09:56.688Z,101452.03
2023-03-01T11:12:24.885Z,101451.28
2023-03-01T11:14:53.582Z,101453.38
2023-03-01T11:17:26.989Z,101447.78
2023-03-01T11:20:03.657Z,101445.56
2023-03-01T11:22:32.973Z,101441.28
2023-03-01T11:25:10.101Z,101441.63
2023-03-01T11:27:40.927Z,101437.81
2023-03-01T11:30:17.995Z,101438.88
2023-03-01T11:32:50.607Z,101437.16
2023-03-01T11:35:20.231Z,101431.63
2023-03-01T11:37:58.094Z,101421.53
2023-03-01T11:40:27.530Z,101417.16
2023-03-01T11:43:08.726Z,101407.59
2023-03-01T11:45:44.772Z,101413.94
2023-03-01T11:48:48.946Z,101400.75
2023-03-01T11:51:24.568Z,101393.94
2023-03-01T11:54:04.326Z,101398.72
2023-03-01T11:56:36.256Z,101387.00
2023-03-01T11:59:22.440Z,101383.84
2023-03-01T12:02:03.284Z,101380.94
2023-03-01T12:05:00.885Z,101386.09
2023-03-01T12:07:37.078Z,101370.25
2023-03-01T12:10:21.295Z,101376.72
2023-03-01T12:13:07.211Z,101360.31
2023-03-01T12:15:54.500Z,101352.56
2023-03-01T12:18:37.698Z,101356.31
2023-03-01T12:21:18.585Z,101346.16
2023-03-01T12:24:24.997Z,101346.03
2023-03-01T12:27:02.596Z,101343.25
2023-03-01T12:29:33.577Z,101348.94
2023-03-01T12:32:19.053Z,101334.44
2023-03-01T12:35:09.827Z,101345.59
2023-03-01T12:37:49.809Z,101319.44
2023-03-01T12:40:35.928Z,101329.44
2023-03-01T12:43:17.090Z,101323.31
2023-03-01T12:45:56.408Z,101311.03
2023-03-01T12:48:35.609Z,101304.03
2023-03-01T12:51:05.506Z,101297.22
2023-03-01T12:53:37.620Z,101305.31
2023-03-01T12:56:08.083Z,101303.19
2023-03-01T12:58:49.084Z,101296.22
2023-03-01T13:01:33.596Z,101283.84
2023-03-01T13:04:12.131Z,101276.28
2023-03-01T13:06:44.264Z,101278.63
2023-03-01T13:09:20.423Z,101283.34
2023-03-01T13:11:48.087Z,101280.84
2023-03-01T13:14:52.575Z,101279.72
2023-03-01T13:17:35.278Z,101268.97
2023-03-01T13:20:04.960Z,101270.63
2023-03-01T13:22:36.565Z,101270.75
2023-03-01T13:25:17.557Z,101262.78
2023-03-01T13:27:46.641Z,101264.56
2023-03-01T13:30:43.986Z,101263.97
2023-03-01T13:33:41.411Z,101251.31
2023-03-01T13:36:11.972Z,101249.47
2023-03-01T13:38:46.794Z,101242.09
2023-03-01T13:41:16.805Z,101242.78
2023-03-01T13:43:46.025Z,101238.81
2023-03-01T13:46:19.123Z,101230.13
2023-03-01T13:48:48.216Z,101239.44
2023-03-01T13:51:16.118Z,101226.28
2023-03-01T13:53:46.465Z,101232.53
2023-03-01T13:56:17.775Z,101225.75
2023-03-01T13:58:52.365Z,101237.06
2023-03-01T14:01:25.765Z,101224.38
2023-03-01T14:03:53.845Z,101223.63
2023-03-01T14:06:23.550Z,101214.00
2023-03-01T14:08:53.322Z,101219.84
2023-03-01T14:11:48.416Z,101212.94
2023-03-01T14:14:34.594Z,101220.47
2023-03-01T14:17:10.602Z,101213.63
2023-03-01T14:19:38.509Z,101213.41
2023-03-01T14:22:15.293Z,101208.50
2023-03-01T14:24:53.421Z,101212.97
2023-03-01T14:27:25.899Z,101215.25
2023-03-01T14:29:58.215Z,101219.78
2023-03-01T14:32:28.276Z,101217.81
2023-03-01T14:34:56.372Z,101210.84
2023-03-01T14:37:26.897Z,101219.47
2023-03-01T14:39:55.414Z,101207.47
2023-03-01T14:42:25.923Z,101201.31
2023-03-01T14:44:55.249Z,101201.00
2023-03-01T14:47:29.109Z,101193.50
2023-03-01T14:50:00.526Z,101192.97
2023-03-01T14:52:35.737Z,101191.00
2023-03-01T14:55:05.220Z,101185.00
2023-03-01T14:57:34.216Z,101189.72
2023-03-01T15:00:06.234Z,101186.84
2023-03-01T15:02:35.005Z,101187.81
2023-03-01T15:05:08.137Z,101177.38
2023-03-01T15:07:38.647Z,101184.56
2023-03-01T15:10:08.838Z,101179.19
2023-03-01T15:12:41.258Z,101179.06
2023-03-01T15:15:32.543Z,101184.72
2023-03-01T15:18:01.312Z,101175.72
2023-03-01T15:20:31.522Z,101184.06
2023-03-01T15:22:59.759Z,101173.44
2023-03-01T15:25:28.721Z,101177.75
2023-03-01T15:27:59.240Z,101179.06
2023-03-01T15:30:28.683Z,101178.75
2023-03-01T15:33:20.400Z,101182.50
2023-03-01T15:35:49.995Z,101187.00
2023-03-01T15:38:38.651Z,101183.75
2023-03-01T15:41:07.878Z,101186.41
2023-03-01T15:43:46.030Z,101186.00
2023-03-01T15:46:19.184Z,101194.66
2023-03-01T15:48:48.177Z,101184.88
2023-03-01T15:51:16.590Z,101175.81
2023-03-01T15:53:54.040Z,101206.66
2023-03-01T15:56:22.404Z,101187.97
2023-03-01T15:58:51.393Z,101193.88
2023-03-01T16:01:19.644Z,101195.56
2023-03-01T16:03:47.743Z,101192.59
2023-03-01T16:06:15.755Z,101195.16
2023-03-01T16:08:43.810Z,101195.75
2023-03-01T16:11:16.433Z,101204.53
2023-03-01T16:13:44.364Z,101204.69
2023-03-01T16:16:16.401Z,101201.66
2023-03-01T16:18:45.383Z,101195.13
2023-03-01T16:21:16.600Z,101198.09
2023-03-01T16:23:45.079Z,101200.88
2023-03-01T16:26:13.922Z,101191.88
2023-03-01T16:28:42.118Z,101201.09
2023-03-01T16:31:10.370Z,101200.94
2023-03-01T16:33:40.341Z,101200.25
2023-03-01T16:36:10.461Z,101207.94
2023-03-01T16:38:38.436Z,101195.28
2023-03-01T16:41:06.156Z,101200.88
2023-03-01T16:43:33.868Z,101200.66
2023-03-01T16:46:01.566Z,101208.03
2023-03-01T16:48:29.184Z,101196.78
2023-03-01T16:51:02.435Z,101195.38
2023-03-01T16:53:30.289Z,101198.91
2023-03-01T16:55:57.953Z,101196.56
2023-03-01T16:58:37.465Z,101206.59
2023-03-01T17:01:10.066Z,101206.63
2023-03-01T17:03:38.439Z,101211.66
2023-03-01T17:06:10.032Z,101214.44
2023-03-01T17:08:38.433Z,101225.03
2023-03-01T17:11:07.806Z,101211.69
2023-03-01T17:13:37.594Z,101218.09
2023-03-01T17:16:06.858Z,101216.88
2023-03-01T17:18:40.945Z,101215.59
2023-03-01T17:21:11.050Z,101219.66
2023-03-01T17:23:40.364Z,101224.25
2023-03-01T17:26:08.643Z,101223.41
2023-03-01T17:28:37.614Z,101227.31
2023-03-01T17:31:07.024Z,101216.19
2023-03-01T17:33:34.862Z,101208.81
2023-03-01T17:36:02.637Z,101228.31
2023-03-01T17:38:31.684Z,101227.63
2023-03-01T17:41:01.573Z,101232.63
2023-03-01T17:43:29.507Z,101234.78
2023-03-01T17:45:57.920Z,101231.47
2023-03-01T17:48:25.807Z,101230.34
2023-03-01T17:50:53.784Z,101234.81
2023-03-01T17:53:21.848Z,101240.22
2023-03-01T17:55:54.093Z,101236.34
2023-03-01T17:58:25.378Z,101236.75
2023-03-01T18:00:53.104Z,101244.81
2023-03-01T18:03:21.607Z,101242.97
2023-03-01T18:05:58.859Z,101236.59
2023-03-01T18:08:30.569Z,101239.22
2023-03-01T18:11:02.662Z,101246.13
2023-03-01T18:13:30.486Z,101251.53
2023-03-01T18:16:03.440Z,101258.47
2023-03-01T18:18:31.224Z,101253.59
2023-03-01T18:20:59.410Z,101253.31
2023-03-01T18:23:28.119Z,101247.59
2023-03-01T18:26:00.179Z,101250.22
2023-03-01T18:28:29.963Z,101242.13
2023-03-01T18:30:58.557Z,101229.47
2023-03-01T18:33:27.090Z,101227.13
2023-03-01T18:35:55.663Z,101222.38
2023-03-01T18:38:23.406Z,101221.09
2023-03-01T18:40:52.815Z,101217.78
2023-03-01T18:43:20.705Z,101216.25
2023-03-01T18:45:50.045Z,101211.38
2023-03-01T18:48:17.831Z,101217.63
2023-03-01T18:50:45.623Z,101216.72
2023-03-01T18:53:13.574Z,101221.47
2023-03-01T18:55:41.273Z,101212.88
2023-03-01T18:58:08.978Z,101215.06
2023-03-01T19:00:36.609Z,101211.03
2023-03-01T19:03:05.761Z,101213.09
2023-03-01T19:05:33.512Z,101218.06
2023-03-01T19:08:01.646Z,101220.69
2023-03-01T19:10:29.270Z,101222.34
2023-03-01T19:12:56.908Z,101230.53
2023-03-01T19:15:24.648Z,101227.69
2023-03-01T19:17:54.295Z,101231.31
2023-03-01T19:20:23.726Z,101232.03
2023-03-01T19:22:51.365Z,101231.81
2023-03-01T19:25:19.191Z,101239.06
2023-03-01T19:27:49.069Z,101240.63
2023-03-01T19:30:17.158Z,101240.06
2023-03-01T19:32:44.806Z,101238.50
2023-03-01T19:35:12.449Z,101239.59
2023-03-01T19:37:41.736Z,101250.16
2023-03-01T19:40:10.488Z,101258.31
2023-03-01T19:42:38.280Z,101248.88
2023-03-01T19:45:06.983Z,101253.53
2023-03-01T19:47:34.624Z,101263.41
2023-03-01T19:50:02.340Z,101259.06
2023-03-01T19:52:29.960Z,101257.91
2023-03-01T19:55:09.089Z,101260.41
2023-03-01T19:57:37.684Z,101263.44
2023-03-01T20:00:06.300Z,101265.34
2023-03-01T20:02:33.963Z,101258.41
2023-03-01T20:05:01.916Z,101264.53
2023-03-01T20:07:29.606Z,101261.19
2023-03-01T20:09:57.274Z,101258.66
2023-03-01T20:12:26.440Z,101254.75
2023-03-01T20:14:55.444Z,101251.13
2023-03-01T20:17:23.336Z,101251.97
2023-03-01T20:19:51.059Z,101255.84
2023-03-01T20:22:19.221Z,101245.31
2023-03-01T20:24:46.962Z,101258.00
2023-03-01T20:27:14.615Z,101262.22
2023-03-01T20:29:46.003Z,101254.06
2023-03-01T20:32:14.074Z,101250.13
2023-03-01T20:34:41.843Z,101253.16
2023-03-01T20:37:09.832Z,101252.56
2023-03-01T20:39:37.507Z,101254.59
2023-03-01T20:42:05.454Z,101259.72
2023-03-01T20:44:33.287Z,101254.59
2023-03-01T20:47:02.761Z,101253.28
2023-03-01T20:49:30.553Z,101262.84
2023-03-01T20:51:58.258Z,101261.91
2023-03-01T20:54:27.970Z,101257.38
2023-03-01T20:56:55.506Z,101246.84
2023-03-01T20:59:23.819Z,101250.72
2023-03-01T21:01:51.980Z,101260.50
2023-03-01T21:04:21.859Z,101256.22
2023-03-01T21:06:49.551Z,101250.94
2023-03-01T21:09:17.257Z,101250.84
2023-03-01T21:11:44.837Z,101249.66
2023-03-01T21:14:13.032Z,101245.31
2023-03-01T21:16:40.636Z,101241.03
2023-03-01T21:19:08.861Z,101250.34
2023-03-01T21:21:37.836Z,101238.88
2023-03-01T21:24:10.039Z,101229.66
2023-03-01T21:26:40.047Z,101239.50
2023-03-01T21:29:07.673Z,101235.16
2023-03-01T21:31:36.334Z,101239.00
2023-03-01T21:34:06.106Z,101236.25
2023-03-01T21:36:35.796Z,101230.66
2023-03-01T21:39:06.924Z,101226.94
2023-03-01T21:41:35.984Z,101234.72
2023-03-01T21:44:06.713Z,101234.81
2023-03-01T21:46:37.301Z,101233.16
2023-03-01T21:49:06.294Z,101226.47
2023-03-01T21:51:36.257Z,101228.03
2023-03-01T21:54:05.921Z,101232.56
2023-03-01T21:56:42.098Z,101232.44
2023-03-01T21:59:13.114Z,101234.25
2023-03-01T22:01:41.479Z,101238.53
2023-03-01T22:04:10.120Z,101236.88
2023-03-01T22:06:40.803Z,101228.38
2023-03-01T22:09:12.866Z,101231.63
2023-03-01T22:11:46.396Z,101226.34
2023-03-01T22:14:17.371Z,101230.16
2023-03-01T22:16:47.693Z,101226.22
2023-03-01T22:19:16.814Z,101235.19
2023-03-01T22:21:47.838Z,101222.06
2023-03-01T22:25:06.726Z,101221.31
2023-03-01T22:27:37.730Z,101225.28
2023-03-01T22:30:17.859Z,101219.66
2023-03-01T22:32:49.803Z,101219.28
2023-03-01T22:35:20.309Z,101212.25
2023-03-01T22:37:50.597Z,101217.75
2023-03-01T22:40:20.641Z,101218.22
2023-03-01T22:42:48.850Z,101218.34
2023-03-01T22:45:35.620Z,101221.94
2023-03-01T22:48:06.594Z,101215.94
2023-03-01T22:50:34.909Z,101210.94
2023-03-01T22:53:03.128Z,101203.28
2023-03-01T22:55:32.666Z,101204.84
2023-03-01T22:58:00.623Z,101201.50
2023-03-01T23:00:28.745Z,101201.72
2023-03-01T23:02:57.877Z,101208.19
2023-03-01T23:05:25.733Z,101204.72
2023-03-01T23:07:53.319Z,101208.41
2023-03-01T23:10:21.412Z,101208.31
2023-03-01T23:12:50.428Z,101199.34
2023-03-01T23:15:17.982Z,101196.34
2023-03-01T23:17:45.568Z,101192.66
2023-03-01T23:20:14.237Z,101198.38
2023-03-01T23:22:42.460Z,101202.09
2023-03-01T23:25:18.115Z,101201.13
2023-03-01T23:27:45.769Z,101198.50
2023-03-01T23:30:15.076Z,101197.88
2023-03-01T23:32:42.886Z,101184.28
2023-03-01T23:35:11.093Z,101194.56
2023-03-01T23:37:38.874Z,101190.97
2023-03-01T23:40:08.256Z,101186.44
2023-03-01T23:42:35.987Z,101185.72
2023-03-01T23:45:05.146Z,101192.16
2023-03-01T23:47:34.731Z,101188.09
2023-03-01T23:50:02.537Z,101185.47
2023-03-01T23:52:40.038Z,101187.25
2023-03-01T23:55:09.538Z,101185.47
2023-03-01T23:57:37.169Z,101190.84
